sensor_id;sensor_type;location;lat;lon;timestamp;P1;durP1;ratioP1;P2;durP2;ratioP2
44440;SDS011;30146;52.268;20.944;2023-03-14T00:00:31;12.30;;;6.30;;
44440;SDS011;30146;52.268;20.944;2023-03-14T00:03:02;13.90;;;6.50;;
44440;SDS011;30146;52.268;20.944;2023-03-14T00:05:33;14.40;;;5.90;;
44440;SDS011;30146;52.268;20.944;2023-03-14T00:08:04;16.20;;;6.30;;
44440;SDS011;30146;52.268;20.944;2023-03-14T00:10:36;10.60;;;5.90;;
44440;SDS011;30146;52.268;20.944;2023-03-14T00:13:07;11.80;;;5.70;;
44440;SDS011;30146;52.268;20.944;2023-03-14T00:15:38;10.30;;;6.20;;
44440;SDS011;30146;52.268;20.944;2023-03-14T00:18:09;21.00;;;6.50;;
44440;SDS011;30146;52.268;20.944;2023-03-14T00:20:40;10.90;;;6.00;;
44440;SDS011;30146;52.268;20.944;2023-03-14T00:23:10;12.30;;;6.10;;
44440;SDS011;30146;52.268;20.944;2023-03-14T00:25:41;10.10;;;6.40;;
44440;SDS011;30146;52.268;20.944;2023-03-14T00:28:12;11.80;;;6.60;;
44440;SDS011;30146;52.268;20.944;2023-03-14T00:30:43;11.50;;;7.20;;
44440;SDS011;30146;52.268;20.944;2023-03-14T00:33:13;11.10;;;6.80;;
44440;SDS011;30146;52.268;20.944;2023-03-14T00:35:44;14.90;;;6.40;;
44440;SDS011;30146;52.268;20.944;2023-03-14T00:38:23;11.70;;;6.70;;
44440;SDS011;30146;52.268;20.944;2023-03-14T00:40:54;14.60;;;7.30;;
44440;SDS011;30146;52.268;20.944;2023-03-14T00:43:26;12.90;;;7.10;;
44440;SDS011;30146;52.268;20.944;2023-03-14T00:45:57;12.80;;;7.20;;
44440;SDS011;30146;52.268;20.944;2023-03-14T00:48:29;14.60;;;7.40;;
44440;SDS011;30146;52.268;20.944;2023-03-14T00:51:01;15.00;;;7.60;;
44440;SDS011;30146;52.268;20.944;2023-03-14T00:53:34;17.70;;;7.70;;
44440;SDS011;30146;52.268;20.944;2023-03-14T00:56:07;17.50;;;7.20;;
44440;SDS011;30146;52.268;20.944;2023-03-14T00:58:39;16.40;;;7.30;;
44440;SDS011;30146;52.268;20.944;2023-03-14T01:01:12;14.60;;;7.70;;
44440;SDS011;30146;52.268;20.944;2023-03-14T01:03:45;12.80;;;6.30;;
44440;SDS011;30146;52.268;20.944;2023-03-14T01:06:20;12.80;;;6.90;;
44440;SDS011;30146;52.268;20.944;2023-03-14T01:08:52;10.40;;;6.30;;
44440;SDS011;30146;52.268;20.944;2023-03-14T01:11:24;14.70;;;6.80;;
44440;SDS011;30146;52.268;20.944;2023-03-14T01:13:58;15.70;;;7.30;;
44440;SDS011;30146;52.268;20.944;2023-03-14T01:16:31;11.40;;;6.70;;
44440;SDS011;30146;52.268;20.944;2023-03-14T01:19:03;14.80;;;7.80;;
44440;SDS011;30146;52.268;20.944;2023-03-14T01:21:34;16.10;;;7.00;;
44440;SDS011;30146;52.268;20.944;2023-03-14T01:24:05;15.80;;;7.30;;
44440;SDS011;30146;52.268;20.944;2023-03-14T01:26:40;13.40;;;6.60;;
44440;SDS011;30146;52.268;20.944;2023-03-14T01:29:11;10.60;;;6.10;;
44440;SDS011;30146;52.268;20.944;2023-03-14T01:31:41;11.30;;;6.90;;
44440;SDS011;30146;52.268;20.944;2023-03-14T01:34:12;15.60;;;7.50;;
44440;SDS011;30146;52.268;20.944;2023-03-14T01:36:43;11.20;;;6.90;;
44440;SDS011;30146;52.268;20.944;2023-03-14T01:39:14;15.80;;;7.00;;
44440;SDS011;30146;52.268;20.944;2023-03-14T01:41:45;13.10;;;6.80;;
44440;SDS011;30146;52.268;20.944;2023-03-14T01:44:16;15.60;;;6.70;;
44440;SDS011;30146;52.268;20.944;2023-03-14T01:46:47;12.30;;;6.90;;
44440;SDS011;30146;52.268;20.944;2023-03-14T01:49:20;14.80;;;7.30;;
44440;SDS011;30146;52.268;20.944;2023-03-14T01:52:01;13.20;;;7.60;;
44440;SDS011;30146;52.268;20.944;2023-03-14T01:54:36;9.70;;;6.10;;
44440;SDS011;30146;52.268;20.944;2023-03-14T01:57:10;9.80;;;6.60;;
44440;SDS011;30146;52.268;20.944;2023-03-14T01:59:46;17.70;;;7.50;;
44440;SDS011;30146;52.268;20.944;2023-03-14T02:02:20;9.60;;;5.90;;
44440;SDS011;30146;52.268;20.944;2023-03-14T02:04:54;14.20;;;7.20;;
44440;SDS011;30146;52.268;20.944;2023-03-14T02:07:32;11.50;;;6.50;;
44440;SDS011;30146;52.268;20.944;2023-03-14T02:10:12;13.80;;;6.40;;
44440;SDS011;30146;52.268;20.944;2023-03-14T02:12:47;16.70;;;7.10;;
44440;SDS011;30146;52.268;20.944;2023-03-14T02:15:38;10.60;;;5.90;;
44440;SDS011;30146;52.268;20.944;2023-03-14T02:18:13;12.90;;;6.60;;
44440;SDS011;30146;52.268;20.944;2023-03-14T02:21:19;13.90;;;6.80;;
44440;SDS011;30146;52.268;20.944;2023-03-14T02:24:02;12.80;;;6.10;;
44440;SDS011;30146;52.268;20.944;2023-03-14T02:29:28;13.60;;;6.30;;
44440;SDS011;30146;52.268;20.944;2023-03-14T02:32:03;13.50;;;7.50;;
44440;SDS011;30146;52.268;20.944;2023-03-14T02:34:35;13.50;;;7.40;;
44440;SDS011;30146;52.268;20.944;2023-03-14T02:37:06;12.90;;;7.70;;
44440;SDS011;30146;52.268;20.944;2023-03-14T02:39:38;13.10;;;6.90;;
44440;SDS011;30146;52.268;20.944;2023-03-14T02:42:13;12.10;;;6.70;;
44440;SDS011;30146;52.268;20.944;2023-03-14T02:44:48;15.70;;;6.60;;
44440;SDS011;30146;52.268;20.944;2023-03-14T02:50:02;12.40;;;6.50;;
44440;SDS011;30146;52.268;20.944;2023-03-14T02:52:37;9.60;;;5.90;;
44440;SDS011;30146;52.268;20.944;2023-03-14T02:55:08;11.60;;;5.90;;
44440;SDS011;30146;52.268;20.944;2023-03-14T02:57:41;10.80;;;5.90;;
44440;SDS011;30146;52.268;20.944;2023-03-14T03:00:12;9.80;;;5.80;;
44440;SDS011;30146;52.268;20.944;2023-03-14T03:02:43;10.50;;;5.60;;
44440;SDS011;30146;52.268;20.944;2023-03-14T03:05:15;8.80;;;5.90;;
44440;SDS011;30146;52.268;20.944;2023-03-14T03:07:46;11.60;;;6.80;;
44440;SDS011;30146;52.268;20.944;2023-03-14T03:10:17;10.10;;;5.50;;
44440;SDS011;30146;52.268;20.944;2023-03-14T03:12:48;10.40;;;5.60;;
44440;SDS011;30146;52.268;20.944;2023-03-14T03:15:22;13.40;;;6.40;;
44440;SDS011;30146;52.268;20.944;2023-03-14T03:17:54;12.10;;;6.60;;
44440;SDS011;30146;52.268;20.944;2023-03-14T03:20:25;10.90;;;5.70;;
44440;SDS011;30146;52.268;20.944;2023-03-14T03:22:56;9.80;;;5.60;;
44440;SDS011;30146;52.268;20.944;2023-03-14T03:25:27;12.40;;;6.30;;
44440;SDS011;30146;52.268;20.944;2023-03-14T03:27:58;13.40;;;6.00;;
44440;SDS011;30146;52.268;20.944;2023-03-14T03:30:29;11.40;;;6.10;;
44440;SDS011;30146;52.268;20.944;2023-03-14T03:33:00;14.30;;;6.60;;
44440;SDS011;30146;52.268;20.944;2023-03-14T03:35:31;12.60;;;6.00;;
44440;SDS011;30146;52.268;20.944;2023-03-14T03:38:02;17.80;;;6.00;;
44440;SDS011;30146;52.268;20.944;2023-03-14T03:40:33;9.80;;;5.60;;
44440;SDS011;30146;52.268;20.944;2023-03-14T03:43:03;12.00;;;6.40;;
44440;SDS011;30146;52.268;20.944;2023-03-14T03:45:36;8.10;;;5.30;;
44440;SDS011;30146;52.268;20.944;2023-03-14T03:48:07;13.70;;;5.30;;
44440;SDS011;30146;52.268;20.944;2023-03-14T03:50:38;12.40;;;5.00;;
44440;SDS011;30146;52.268;20.944;2023-03-14T03:53:16;11.20;;;5.10;;
44440;SDS011;30146;52.268;20.944;2023-03-14T03:58:31;10.20;;;4.70;;
44440;SDS011;30146;52.268;20.944;2023-03-14T04:01:02;13.90;;;6.30;;
44440;SDS011;30146;52.268;20.944;2023-03-14T04:03:35;7.60;;;4.80;;
44440;SDS011;30146;52.268;20.944;2023-03-14T04:06:08;10.60;;;4.90;;
44440;SDS011;30146;52.268;20.944;2023-03-14T04:08:43;9.70;;;5.50;;
44440;SDS011;30146;52.268;20.944;2023-03-14T04:11:32;8.60;;;5.20;;
44440;SDS011;30146;52.268;20.944;2023-03-14T04:14:36;8.60;;;5.00;;
44440;SDS011;30146;52.268;20.944;2023-03-14T04:17:16;8.30;;;5.10;;
44440;SDS011;30146;52.268;20.944;2023-03-14T04:19:49;7.90;;;4.40;;
44440;SDS011;30146;52.268;20.944;2023-03-14T04:22:24;13.30;;;5.30;;
44440;SDS011;30146;52.268;20.944;2023-03-14T04:24:55;8.20;;;5.20;;
44440;SDS011;30146;52.268;20.944;2023-03-14T04:27:26;7.80;;;5.10;;
44440;SDS011;30146;52.268;20.944;2023-03-14T04:29:57;7.90;;;4.60;;
44440;SDS011;30146;52.268;20.944;2023-03-14T04:32:48;9.30;;;4.70;;
44440;SDS011;30146;52.268;20.944;2023-03-14T04:35:20;8.00;;;4.70;;
44440;SDS011;30146;52.268;20.944;2023-03-14T04:37:54;10.30;;;4.40;;
44440;SDS011;30146;52.268;20.944;2023-03-14T04:40:26;8.50;;;4.40;;
44440;SDS011;30146;52.268;20.944;2023-03-14T04:43:01;9.80;;;5.80;;
44440;SDS011;30146;52.268;20.944;2023-03-14T04:45:32;10.60;;;5.30;;
44440;SDS011;30146;52.268;20.944;2023-03-14T04:48:06;9.90;;;5.30;;
44440;SDS011;30146;52.268;20.944;2023-03-14T04:50:37;13.90;;;5.10;;
44440;SDS011;30146;52.268;20.944;2023-03-14T04:53:08;9.70;;;5.40;;
44440;SDS011;30146;52.268;20.944;2023-03-14T04:55:42;17.00;;;5.40;;
44440;SDS011;30146;52.268;20.944;2023-03-14T04:58:16;10.70;;;6.50;;
44440;SDS011;30146;52.268;20.944;2023-03-14T05:00:49;7.30;;;5.20;;
44440;SDS011;30146;52.268;20.944;2023-03-14T05:03:42;12.90;;;5.30;;
44440;SDS011;30146;52.268;20.944;2023-03-14T05:06:22;9.20;;;5.00;;
44440;SDS011;30146;52.268;20.944;2023-03-14T05:09:08;8.70;;;4.90;;
44440;SDS011;30146;52.268;20.944;2023-03-14T05:11:51;6.90;;;4.40;;
44440;SDS011;30146;52.268;20.944;2023-03-14T05:14:46;6.90;;;4.60;;
44440;SDS011;30146;52.268;20.944;2023-03-14T05:17:39;9.20;;;5.10;;
44440;SDS011;30146;52.268;20.944;2023-03-14T05:20:13;9.90;;;4.50;;
44440;SDS011;30146;52.268;20.944;2023-03-14T05:23:01;8.10;;;4.60;;
44440;SDS011;30146;52.268;20.944;2023-03-14T05:25:50;7.60;;;4.30;;
44440;SDS011;30146;52.268;20.944;2023-03-14T05:28:38;7.50;;;4.60;;
44440;SDS011;30146;52.268;20.944;2023-03-14T05:31:20;6.70;;;3.80;;
44440;SDS011;30146;52.268;20.944;2023-03-14T05:34:10;12.90;;;8.50;;
44440;SDS011;30146;52.268;20.944;2023-03-14T05:37:10;8.30;;;4.80;;
44440;SDS011;30146;52.268;20.944;2023-03-14T05:40:16;7.50;;;4.40;;
44440;SDS011;30146;52.268;20.944;2023-03-14T05:43:13;7.60;;;5.00;;
44440;SDS011;30146;52.268;20.944;2023-03-14T05:46:02;10.60;;;4.70;;
44440;SDS011;30146;52.268;20.944;2023-03-14T05:48:42;11.00;;;5.10;;
44440;SDS011;30146;52.268;20.944;2023-03-14T05:51:42;8.90;;;4.80;;
44440;SDS011;30146;52.268;20.944;2023-03-14T05:54:46;14.60;;;6.10;;
44440;SDS011;30146;52.268;20.944;2023-03-14T05:57:37;12.10;;;5.40;;
44440;SDS011;30146;52.268;20.944;2023-03-14T06:00:34;7.80;;;4.90;;
44440;SDS011;30146;52.268;20.944;2023-03-14T06:03:13;11.10;;;4.60;;
44440;SDS011;30146;52.268;20.944;2023-03-14T06:05:44;8.60;;;5.30;;
44440;SDS011;30146;52.268;20.944;2023-03-14T06:08:18;7.70;;;4.30;;
44440;SDS011;30146;52.268;20.944;2023-03-14T06:10:51;11.80;;;4.80;;
44440;SDS011;30146;52.268;20.944;2023-03-14T06:13:26;8.40;;;5.10;;
44440;SDS011;30146;52.268;20.944;2023-03-14T06:16:03;8.40;;;4.30;;
44440;SDS011;30146;52.268;20.944;2023-03-14T06:18:34;8.30;;;4.20;;
44440;SDS011;30146;52.268;20.944;2023-03-14T06:21:07;6.60;;;3.70;;
44440;SDS011;30146;52.268;20.944;2023-03-14T06:23:38;9.50;;;4.30;;
44440;SDS011;30146;52.268;20.944;2023-03-14T06:26:10;8.50;;;4.30;;
44440;SDS011;30146;52.268;20.944;2023-03-14T06:28:42;10.90;;;4.60;;
44440;SDS011;30146;52.268;20.944;2023-03-14T06:31:13;10.10;;;4.50;;
44440;SDS011;30146;52.268;20.944;2023-03-14T06:33:55;8.10;;;4.70;;
44440;SDS011;30146;52.268;20.944;2023-03-14T06:39:00;7.90;;;4.80;;
44440;SDS011;30146;52.268;20.944;2023-03-14T06:41:32;9.30;;;4.90;;
44440;SDS011;30146;52.268;20.944;2023-03-14T06:44:03;6.80;;;4.80;;
44440;SDS011;30146;52.268;20.944;2023-03-14T06:46:34;7.80;;;4.10;;
44440;SDS011;30146;52.268;20.944;2023-03-14T06:49:05;19.00;;;8.00;;
44440;SDS011;30146;52.268;20.944;2023-03-14T06:51:36;11.40;;;5.80;;
44440;SDS011;30146;52.268;20.944;2023-03-14T06:54:09;13.50;;;4.50;;
44440;SDS011;30146;52.268;20.944;2023-03-14T06:56:41;8.80;;;5.00;;
44440;SDS011;30146;52.268;20.944;2023-03-14T06:59:12;22.80;;;6.30;;
44440;SDS011;30146;52.268;20.944;2023-03-14T07:01:46;10.30;;;5.10;;
44440;SDS011;30146;52.268;20.944;2023-03-14T07:04:18;10.00;;;4.90;;
44440;SDS011;30146;52.268;20.944;2023-03-14T07:06:49;8.90;;;4.50;;
44440;SDS011;30146;52.268;20.944;2023-03-14T07:09:22;9.00;;;4.30;;
44440;SDS011;30146;52.268;20.944;2023-03-14T07:11:57;5.60;;;3.90;;
44440;SDS011;30146;52.268;20.944;2023-03-14T07:14:28;13.70;;;4.30;;
44440;SDS011;30146;52.268;20.944;2023-03-14T07:17:00;9.90;;;4.70;;
44440;SDS011;30146;52.268;20.944;2023-03-14T07:19:31;7.90;;;4.40;;
44440;SDS011;30146;52.268;20.944;2023-03-14T07:22:02;10.00;;;4.30;;
44440;SDS011;30146;52.268;20.944;2023-03-14T07:24:33;8.10;;;4.90;;
44440;SDS011;30146;52.268;20.944;2023-03-14T07:27:04;6.50;;;4.30;;
44440;SDS011;30146;52.268;20.944;2023-03-14T07:29:38;9.30;;;4.30;;
44440;SDS011;30146;52.268;20.944;2023-03-14T07:32:09;12.30;;;5.30;;
44440;SDS011;30146;52.268;20.944;2023-03-14T07:34:43;11.80;;;5.40;;
44440;SDS011;30146;52.268;20.944;2023-03-14T07:37:15;8.60;;;4.30;;
44440;SDS011;30146;52.268;20.944;2023-03-14T07:39:45;10.80;;;5.20;;
44440;SDS011;30146;52.268;20.944;2023-03-14T07:42:21;11.80;;;4.80;;
44440;SDS011;30146;52.268;20.944;2023-03-14T07:45:12;8.40;;;4.40;;
44440;SDS011;30146;52.268;20.944;2023-03-14T07:47:43;8.00;;;4.70;;
44440;SDS011;30146;52.268;20.944;2023-03-14T07:50:14;9.10;;;4.30;;
44440;SDS011;30146;52.268;20.944;2023-03-14T07:52:46;14.10;;;5.50;;
44440;SDS011;30146;52.268;20.944;2023-03-14T07:55:17;12.50;;;4.60;;
44440;SDS011;30146;52.268;20.944;2023-03-14T07:57:48;11.80;;;4.70;;
44440;SDS011;30146;52.268;20.944;2023-03-14T08:00:20;16.20;;;4.60;;
44440;SDS011;30146;52.268;20.944;2023-03-14T08:02:52;6.70;;;4.30;;
44440;SDS011;30146;52.268;20.944;2023-03-14T08:05:23;8.10;;;4.60;;
44440;SDS011;30146;52.268;20.944;2023-03-14T08:07:54;8.30;;;4.40;;
44440;SDS011;30146;52.268;20.944;2023-03-14T08:10:25;10.70;;;4.30;;
44440;SDS011;30146;52.268;20.944;2023-03-14T08:12:57;11.00;;;4.50;;
44440;SDS011;30146;52.268;20.944;2023-03-14T08:15:29;10.60;;;7.60;;
44440;SDS011;30146;52.268;20.944;2023-03-14T08:18:01;8.90;;;4.80;;
44440;SDS011;30146;52.268;20.944;2023-03-14T08:20:32;9.70;;;4.80;;
44440;SDS011;30146;52.268;20.944;2023-03-14T08:23:05;9.70;;;4.20;;
44440;SDS011;30146;52.268;20.944;2023-03-14T08:25:37;7.50;;;4.20;;
44440;SDS011;30146;52.268;20.944;2023-03-14T08:28:08;9.10;;;5.30;;
44440;SDS011;30146;52.268;20.944;2023-03-14T08:30:40;9.80;;;4.50;;
44440;SDS011;30146;52.268;20.944;2023-03-14T08:33:14;8.00;;;4.10;;
44440;SDS011;30146;52.268;20.944;2023-03-14T08:35:45;7.90;;;3.90;;
44440;SDS011;30146;52.268;20.944;2023-03-14T08:38:17;6.90;;;3.60;;
44440;SDS011;30146;52.268;20.944;2023-03-14T08:40:48;7.60;;;3.90;;
44440;SDS011;30146;52.268;20.944;2023-03-14T08:43:25;6.30;;;4.00;;
44440;SDS011;30146;52.268;20.944;2023-03-14T08:45:58;10.80;;;7.40;;
44440;SDS011;30146;52.268;20.944;2023-03-14T08:48:30;7.00;;;4.70;;
44440;SDS011;30146;52.268;20.944;2023-03-14T08:51:05;8.20;;;3.90;;
44440;SDS011;30146;52.268;20.944;2023-03-14T08:53:38;12.10;;;4.40;;
44440;SDS011;30146;52.268;20.944;2023-03-14T08:56:09;6.00;;;3.40;;
44440;SDS011;30146;52.268;20.944;2023-03-14T08:58:44;7.00;;;3.90;;
44440;SDS011;30146;52.268;20.944;2023-03-14T09:01:15;8.30;;;4.20;;
44440;SDS011;30146;52.268;20.944;2023-03-14T09:03:49;9.60;;;3.70;;
44440;SDS011;30146;52.268;20.944;2023-03-14T09:06:20;5.80;;;3.70;;
44440;SDS011;30146;52.268;20.944;2023-03-14T09:08:51;8.10;;;3.90;;
44440;SDS011;30146;52.268;20.944;2023-03-14T09:11:21;6.70;;;3.70;;
44440;SDS011;30146;52.268;20.944;2023-03-14T09:13:53;12.50;;;5.30;;
44440;SDS011;30146;52.268;20.944;2023-03-14T09:16:25;12.60;;;4.10;;
44440;SDS011;30146;52.268;20.944;2023-03-14T09:18:56;5.70;;;3.60;;
44440;SDS011;30146;52.268;20.944;2023-03-14T09:21:27;8.70;;;3.80;;
44440;SDS011;30146;52.268;20.944;2023-03-14T09:23:58;6.20;;;3.80;;
44440;SDS011;30146;52.268;20.944;2023-03-14T09:26:30;11.30;;;5.50;;
44440;SDS011;30146;52.268;20.944;2023-03-14T09:29:02;14.00;;;6.10;;
44440;SDS011;30146;52.268;20.944;2023-03-14T09:31:33;7.60;;;4.20;;
44440;SDS011;30146;52.268;20.944;2023-03-14T09:34:04;8.10;;;4.00;;
44440;SDS011;30146;52.268;20.944;2023-03-14T09:36:35;6.70;;;3.80;;
44440;SDS011;30146;52.268;20.944;2023-03-14T09:39:08;8.20;;;4.00;;
44440;SDS011;30146;52.268;20.944;2023-03-14T09:41:39;5.90;;;3.60;;
44440;SDS011;30146;52.268;20.944;2023-03-14T09:44:13;11.60;;;3.70;;
44440;SDS011;30146;52.268;20.944;2023-03-14T09:46:50;13.20;;;6.20;;
44440;SDS011;30146;52.268;20.944;2023-03-14T09:49:24;6.30;;;3.80;;
44440;SDS011;30146;52.268;20.944;2023-03-14T09:51:58;8.30;;;4.10;;
44440;SDS011;30146;52.268;20.944;2023-03-14T09:54:32;10.40;;;3.70;;
44440;SDS011;30146;52.268;20.944;2023-03-14T09:59:41;6.50;;;3.70;;
44440;SDS011;30146;52.268;20.944;2023-03-14T10:02:15;10.00;;;3.80;;
44440;SDS011;30146;52.268;20.944;2023-03-14T10:04:49;10.10;;;4.40;;
44440;SDS011;30146;52.268;20.944;2023-03-14T10:07:25;7.10;;;4.10;;
44440;SDS011;30146;52.268;20.944;2023-03-14T10:09:59;10.80;;;4.20;;
44440;SDS011;30146;52.268;20.944;2023-03-14T10:12:33;6.60;;;3.80;;
44440;SDS011;30146;52.268;20.944;2023-03-14T10:15:08;10.00;;;3.90;;
44440;SDS011;30146;52.268;20.944;2023-03-14T10:17:42;8.30;;;3.60;;
44440;SDS011;30146;52.268;20.944;2023-03-14T10:20:27;9.20;;;4.10;;
44440;SDS011;30146;52.268;20.944;2023-03-14T10:23:04;10.90;;;3.70;;
44440;SDS011;30146;52.268;20.944;2023-03-14T10:25:58;11.20;;;5.50;;
44440;SDS011;30146;52.268;20.944;2023-03-14T10:28:33;11.30;;;3.90;;
44440;SDS011;30146;52.268;20.944;2023-03-14T10:31:07;8.90;;;3.80;;
44440;SDS011;30146;52.268;20.944;2023-03-14T10:33:38;6.00;;;4.00;;
44440;SDS011;30146;52.268;20.944;2023-03-14T10:36:17;7.30;;;3.90;;
44440;SDS011;30146;52.268;20.944;2023-03-14T10:38:51;7.70;;;3.40;;
44440;SDS011;30146;52.268;20.944;2023-03-14T10:41:47;6.20;;;3.40;;
44440;SDS011;30146;52.268;20.944;2023-03-14T10:44:22;7.20;;;3.30;;
44440;SDS011;30146;52.268;20.944;2023-03-14T10:46:58;13.80;;;4.30;;
44440;SDS011;30146;52.268;20.944;2023-03-14T10:49:32;7.80;;;3.60;;
44440;SDS011;30146;52.268;20.944;2023-03-14T10:52:14;8.70;;;3.90;;
44440;SDS011;30146;52.268;20.944;2023-03-14T10:54:59;11.60;;;3.70;;
44440;SDS011;30146;52.268;20.944;2023-03-14T10:57:33;15.90;;;3.80;;
44440;SDS011;30146;52.268;20.944;2023-03-14T11:00:12;9.80;;;3.80;;
44440;SDS011;30146;52.268;20.944;2023-03-14T11:02:52;6.00;;;4.00;;
44440;SDS011;30146;52.268;20.944;2023-03-14T11:05:36;7.60;;;3.80;;
44440;SDS011;30146;52.268;20.944;2023-03-14T11:08:14;5.60;;;3.40;;
44440;SDS011;30146;52.268;20.944;2023-03-14T11:10:51;7.90;;;3.70;;
44440;SDS011;30146;52.268;20.944;2023-03-14T11:13:28;18.80;;;3.90;;
44440;SDS011;30146;52.268;20.944;2023-03-14T11:16:08;11.40;;;3.60;;
44440;SDS011;30146;52.268;20.944;2023-03-14T11:18:57;8.00;;;3.80;;
44440;SDS011;30146;52.268;20.944;2023-03-14T11:21:43;7.50;;;3.90;;
44440;SDS011;30146;52.268;20.944;2023-03-14T11:24:41;10.90;;;3.90;;
44440;SDS011;30146;52.268;20.944;2023-03-14T11:27:30;9.10;;;4.10;;
44440;SDS011;30146;52.268;20.944;2023-03-14T11:30:16;10.40;;;3.80;;
44440;SDS011;30146;52.268;20.944;2023-03-14T11:32:56;7.90;;;3.80;;
44440;SDS011;30146;52.268;20.944;2023-03-14T11:35:33;7.40;;;3.60;;
44440;SDS011;30146;52.268;20.944;2023-03-14T11:38:12;7.00;;;3.70;;
44440;SDS011;30146;52.268;20.944;2023-03-14T11:40:46;7.10;;;3.60;;
44440;SDS011;30146;52.268;20.944;2023-03-14T11:43:24;7.50;;;4.70;;
44440;SDS011;30146;52.268;20.944;2023-03-14T11:46:01;7.50;;;4.50;;
44440;SDS011;30146;52.268;20.944;2023-03-14T11:48:38;11.40;;;3.90;;
44440;SDS011;30146;52.268;20.944;2023-03-14T11:51:17;7.00;;;4.40;;
44440;SDS011;30146;52.268;20.944;2023-03-14T11:53:55;8.40;;;4.10;;
44440;SDS011;30146;52.268;20.944;2023-03-14T11:56:33;10.70;;;4.10;;
44440;SDS011;30146;52.268;20.944;2023-03-14T11:59:09;14.00;;;4.80;;
44440;SDS011;30146;52.268;20.944;2023-03-14T12:01:55;11.00;;;4.70;;
44440;SDS011;30146;52.268;20.944;2023-03-14T12:04:33;9.10;;;4.10;;
44440;SDS011;30146;52.268;20.944;2023-03-14T12:07:20;10.20;;;5.50;;
44440;SDS011;30146;52.268;20.944;2023-03-14T12:09:55;10.40;;;4.40;;
44440;SDS011;30146;52.268;20.944;2023-03-14T12:12:27;8.60;;;4.20;;
44440;SDS011;30146;52.268;20.944;2023-03-14T12:14:59;10.00;;;4.50;;
44440;SDS011;30146;52.268;20.944;2023-03-14T12:17:35;12.60;;;4.70;;
44440;SDS011;30146;52.268;20.944;2023-03-14T12:20:12;11.30;;;4.10;;
44440;SDS011;30146;52.268;20.944;2023-03-14T12:22:49;10.20;;;5.00;;
44440;SDS011;30146;52.268;20.944;2023-03-14T12:25:22;12.10;;;5.50;;
44440;SDS011;30146;52.268;20.944;2023-03-14T12:28:12;9.30;;;4.40;;
44440;SDS011;30146;52.268;20.944;2023-03-14T12:30:48;11.00;;;4.70;;
44440;SDS011;30146;52.268;20.944;2023-03-14T12:33:28;10.00;;;5.50;;
44440;SDS011;30146;52.268;20.944;2023-03-14T12:36:05;10.50;;;5.90;;
44440;SDS011;30146;52.268;20.944;2023-03-14T12:39:03;9.60;;;4.70;;
44440;SDS011;30146;52.268;20.944;2023-03-14T12:41:46;11.10;;;5.60;;
44440;SDS011;30146;52.268;20.944;2023-03-14T12:44:40;15.60;;;8.30;;
44440;SDS011;30146;52.268;20.944;2023-03-14T12:50:22;10.50;;;5.60;;
44440;SDS011;30146;52.268;20.944;2023-03-14T12:53:05;13.80;;;5.10;;
44440;SDS011;30146;52.268;20.944;2023-03-14T12:55:56;10.40;;;5.40;;
44440;SDS011;30146;52.268;20.944;2023-03-14T12:58:36;10.50;;;5.60;;
44440;SDS011;30146;52.268;20.944;2023-03-14T13:01:16;15.20;;;5.90;;
44440;SDS011;30146;52.268;20.944;2023-03-14T13:03:50;11.90;;;6.50;;
44440;SDS011;30146;52.268;20.944;2023-03-14T13:09:48;12.60;;;5.80;;
44440;SDS011;30146;52.268;20.944;2023-03-14T13:12:27;13.00;;;5.90;;
44440;SDS011;30146;52.268;20.944;2023-03-14T13:15:12;9.30;;;5.50;;
44440;SDS011;30146;52.268;20.944;2023-03-14T13:17:47;10.20;;;5.70;;
44440;SDS011;30146;52.268;20.944;2023-03-14T13:20:21;11.40;;;5.90;;
44440;SDS011;30146;52.268;20.944;2023-03-14T13:22:57;13.60;;;6.10;;
44440;SDS011;30146;52.268;20.944;2023-03-14T13:25:30;11.50;;;6.00;;
44440;SDS011;30146;52.268;20.944;2023-03-14T13:28:03;11.70;;;5.90;;
44440;SDS011;30146;52.268;20.944;2023-03-14T13:30:40;11.70;;;5.60;;
44440;SDS011;30146;52.268;20.944;2023-03-14T13:33:14;10.70;;;6.00;;
44440;SDS011;30146;52.268;20.944;2023-03-14T13:35:46;10.70;;;5.90;;
44440;SDS011;30146;52.268;20.944;2023-03-14T13:38:19;11.20;;;6.00;;
44440;SDS011;30146;52.268;20.944;2023-03-14T13:40:53;24.00;;;7.10;;
44440;SDS011;30146;52.268;20.944;2023-03-14T13:43:29;13.20;;;6.20;;
44440;SDS011;30146;52.268;20.944;2023-03-14T13:46:04;10.30;;;6.40;;
44440;SDS011;30146;52.268;20.944;2023-03-14T13:48:40;17.80;;;6.40;;
44440;SDS011;30146;52.268;20.944;2023-03-14T13:51:16;12.60;;;6.30;;
44440;SDS011;30146;52.268;20.944;2023-03-14T13:53:49;15.60;;;6.80;;
44440;SDS011;30146;52.268;20.944;2023-03-14T13:56:23;12.50;;;6.50;;
44440;SDS011;30146;52.268;20.944;2023-03-14T13:58:55;10.00;;;6.50;;
44440;SDS011;30146;52.268;20.944;2023-03-14T14:01:27;11.40;;;7.10;;
44440;SDS011;30146;52.268;20.944;2023-03-14T14:04:05;12.60;;;6.10;;
44440;SDS011;30146;52.268;20.944;2023-03-14T14:06:39;11.90;;;6.60;;
44440;SDS011;30146;52.268;20.944;2023-03-14T14:09:19;10.20;;;6.50;;
44440;SDS011;30146;52.268;20.944;2023-03-14T14:11:53;12.20;;;6.30;;
44440;SDS011;30146;52.268;20.944;2023-03-14T14:14:43;13.50;;;6.20;;
44440;SDS011;30146;52.268;20.944;2023-03-14T14:19:49;11.40;;;5.60;;
44440;SDS011;30146;52.268;20.944;2023-03-14T14:22:21;11.90;;;6.40;;
44440;SDS011;30146;52.268;20.944;2023-03-14T14:24:52;12.30;;;6.40;;
44440;SDS011;30146;52.268;20.944;2023-03-14T14:27:27;18.30;;;7.60;;
44440;SDS011;30146;52.268;20.944;2023-03-14T14:30:03;10.10;;;6.60;;
44440;SDS011;30146;52.268;20.944;2023-03-14T14:32:36;22.60;;;8.60;;
44440;SDS011;30146;52.268;20.944;2023-03-14T14:35:10;14.80;;;7.80;;
44440;SDS011;30146;52.268;20.944;2023-03-14T14:37:53;16.80;;;7.60;;
44440;SDS011;30146;52.268;20.944;2023-03-14T14:40:25;21.80;;;8.60;;
44440;SDS011;30146;52.268;20.944;2023-03-14T14:43:02;14.90;;;6.70;;
44440;SDS011;30146;52.268;20.944;2023-03-14T14:45:34;18.80;;;7.60;;
44440;SDS011;30146;52.268;20.944;2023-03-14T14:48:06;17.70;;;6.50;;
44440;SDS011;30146;52.268;20.944;2023-03-14T14:50:48;18.20;;;6.90;;
44440;SDS011;30146;52.268;20.944;2023-03-14T14:53:26;11.10;;;6.50;;
44440;SDS011;30146;52.268;20.944;2023-03-14T14:56:03;15.60;;;6.30;;
44440;SDS011;30146;52.268;20.944;2023-03-14T14:58:40;10.00;;;5.60;;
44440;SDS011;30146;52.268;20.944;2023-03-14T15:01:14;14.10;;;6.50;;
44440;SDS011;30146;52.268;20.944;2023-03-14T15:03:47;11.70;;;6.30;;
44440;SDS011;30146;52.268;20.944;2023-03-14T15:06:20;10.10;;;5.70;;
44440;SDS011;30146;52.268;20.944;2023-03-14T15:08:54;11.20;;;6.00;;
44440;SDS011;30146;52.268;20.944;2023-03-14T15:11:26;12.00;;;5.00;;
44440;SDS011;30146;52.268;20.944;2023-03-14T15:13:57;7.40;;;5.00;;
44440;SDS011;30146;52.268;20.944;2023-03-14T15:16:28;8.60;;;5.50;;
44440;SDS011;30146;52.268;20.944;2023-03-14T15:19:02;14.00;;;6.20;;
44440;SDS011;30146;52.268;20.944;2023-03-14T15:21:51;18.30;;;6.80;;
44440;SDS011;30146;52.268;20.944;2023-03-14T15:24:22;14.00;;;5.70;;
44440;SDS011;30146;52.268;20.944;2023-03-14T15:26:53;11.10;;;6.40;;
44440;SDS011;30146;52.268;20.944;2023-03-14T15:29:24;12.50;;;5.40;;
44440;SDS011;30146;52.268;20.944;2023-03-14T15:31:57;10.30;;;5.50;;
44440;SDS011;30146;52.268;20.944;2023-03-14T15:34:29;14.60;;;6.00;;
44440;SDS011;30146;52.268;20.944;2023-03-14T15:37:00;15.40;;;6.70;;